Terminal Aerodrome Forecast
Issued by NWS Atlanta, GA

Home | Current Version | Previous Version | Text Only | Print | Product List | Glossary On
Versions: 1 2 3 4 5 6 7 8 9 10 11 12 13
000
FTUS42 KFFC 051140
TAFCSG
TAF
KCSG 051140Z 0512/0612 09006KT P6SM SKC
     FM051700 09005KT P6SM VCTS SCT060CB
     FM051800 12006KT P6SM SCT060
     FM060500 00000KT P6SM SCT070=

USA.gov is the U.S. government's official web portal to all federal, state and local government web resources and services.